KSHN/SHN METAR and TAF weather

Enter ICAO airport designator
Station Type Date Time Source
KSHN METAR 2020/09/18 16:53 UTC NOAA

KSHN 181653Z AUTO 21007KT 6SM BR FEW008 OVC100 18/17 A2988 RMK AO2 RAB19E41 SLP118 P0000 T01780172


Station Type Date Time Source
KSHN Decoded METAR 2020/09/18 16:53 UTC NOAA

SHELTON SANDERSON FIELD, WA, United States (KSHN) 47-14N 123-08W 82M
Sep 18, 2020 - 12:53 PM EDT / 2020.09.18 1653 UTC
Wind: from the SSW (210 degrees) at 8 MPH (7 KT):0
Visibility: 6 mile(s):0
Sky conditions: overcast
Weather: mist
Precipitation last hour: A trace
Temperature: 64.0 F (17.8 C)
Dew Point: 63.0 F (17.2 C)
Relative Humidity: 96%
Pressure (altimeter): 29.88 in. Hg (1011 hPa)
ob: KSHN 181653Z AUTO 21007KT 6SM BR FEW008 OVC100 18/17 A2988 RMK AO2 RAB19E41 SLP118 P0000 T01780172
cycle: 17

Station Type Date Time Source
KSHN TAF UTC NOAA

Error!

Example: see airport list